createdAt,value
2023-05-15T00:00:57.445Z,99.90
2023-05-15T00:03:25.989Z,99.90
2023-05-15T00:05:53.760Z,99.90
2023-05-15T00:08:21.276Z,99.90
2023-05-15T00:11:00.817Z,99.90
2023-05-15T00:13:29.979Z,99.90
2023-05-15T00:15:57.593Z,99.90
2023-05-15T00:18:25.378Z,99.90
2023-05-15T00:20:53.335Z,99.90
2023-05-15T00:23:20.468Z,99.90
2023-05-15T00:25:47.818Z,99.90
2023-05-15T00:28:14.979Z,99.90
2023-05-15T00:30:42.360Z,99.90
2023-05-15T00:33:09.887Z,99.90
2023-05-15T00:35:38.056Z,99.90
2023-05-15T00:38:05.291Z,99.90
2023-05-15T00:40:34.122Z,99.90
2023-05-15T00:43:02.501Z,99.90
2023-05-15T00:45:30.799Z,99.90
2023-05-15T00:47:59.051Z,99.90
2023-05-15T00:50:26.804Z,99.90
2023-05-15T00:52:55.324Z,99.90
2023-05-15T00:55:23.331Z,99.90
2023-05-15T00:57:52.569Z,99.90
2023-05-15T01:00:20.986Z,99.90
2023-05-15T01:02:48.388Z,99.90
2023-05-15T01:05:16.085Z,99.90
2023-05-15T01:08:06.684Z,99.90
2023-05-15T01:10:35.689Z,99.90
2023-05-15T01:13:04.672Z,99.90
2023-05-15T01:15:34.425Z,99.90
2023-05-15T01:18:01.801Z,99.90
2023-05-15T01:20:32.814Z,99.90
2023-05-15T01:23:11.167Z,99.90
2023-05-15T01:26:07.734Z,99.90
2023-05-15T01:28:43.301Z,99.90
2023-05-15T01:31:19.547Z,99.90
2023-05-15T01:33:53.169Z,99.90
2023-05-15T01:36:35.768Z,99.90
2023-05-15T01:39:05.362Z,99.90
2023-05-15T01:41:41.387Z,99.90
2023-05-15T01:44:17.146Z,99.90
2023-05-15T01:46:48.584Z,99.90
2023-05-15T01:49:19.151Z,99.90
2023-05-15T01:51:50.846Z,99.90
2023-05-15T01:54:19.518Z,99.90
2023-05-15T01:56:48.262Z,99.90
2023-05-15T01:59:17.750Z,99.90
2023-05-15T02:01:46.674Z,99.90
2023-05-15T02:04:15.571Z,99.90
2023-05-15T02:06:43.856Z,99.90
2023-05-15T02:09:11.104Z,99.90
2023-05-15T02:11:38.882Z,99.90
2023-05-15T02:14:32.050Z,99.90
2023-05-15T02:16:59.273Z,99.90
2023-05-15T02:19:27.605Z,99.90
2023-05-15T02:21:54.992Z,99.90
2023-05-15T02:24:22.216Z,99.90
2023-05-15T02:27:08.320Z,99.90
2023-05-15T02:29:54.625Z,99.90
2023-05-15T02:32:50.600Z,99.90
2023-05-15T02:35:33.760Z,99.90
2023-05-15T02:38:07.764Z,99.90
2023-05-15T02:40:37.536Z,99.90
2023-05-15T02:43:08.293Z,99.90
2023-05-15T02:45:36.641Z,99.90
2023-05-15T02:48:04.684Z,99.90
2023-05-15T02:50:32.030Z,99.90
2023-05-15T02:53:04.728Z,99.90
2023-05-15T02:55:31.947Z,99.90
2023-05-15T02:57:59.372Z,99.90
2023-05-15T03:00:26.606Z,99.90
2023-05-15T03:02:53.958Z,99.90
2023-05-15T03:05:21.323Z,99.90
2023-05-15T03:07:48.562Z,99.90
2023-05-15T03:10:15.847Z,99.90
2023-05-15T03:12:43.490Z,99.90
2023-05-15T03:15:11.339Z,99.90
2023-05-15T03:17:38.500Z,99.90
2023-05-15T03:20:06.405Z,99.90
2023-05-15T03:22:33.646Z,99.90
2023-05-15T03:25:01.845Z,99.90
2023-05-15T03:27:29.634Z,99.90
2023-05-15T03:29:57.152Z,99.90
2023-05-15T03:32:24.336Z,99.90
2023-05-15T03:34:51.525Z,99.90
2023-05-15T03:37:19.396Z,99.90
2023-05-15T03:39:46.576Z,99.90
2023-05-15T03:42:14.447Z,99.90
2023-05-15T03:44:41.752Z,99.90
2023-05-15T03:47:10.365Z,99.90
2023-05-15T03:49:38.745Z,99.90
2023-05-15T03:52:07.003Z,99.90
2023-05-15T03:54:34.906Z,99.90
2023-05-15T03:57:04.179Z,99.90
2023-05-15T03:59:31.491Z,99.90
2023-05-15T04:02:04.903Z,99.90
2023-05-15T04:04:32.996Z,99.90
2023-05-15T04:07:00.774Z,99.90
2023-05-15T04:09:28.086Z,99.90
2023-05-15T04:11:55.290Z,99.90
2023-05-15T04:14:22.501Z,99.90
2023-05-15T04:16:49.770Z,99.90
2023-05-15T04:19:17.435Z,99.90
2023-05-15T04:21:45.111Z,99.90
2023-05-15T04:24:12.464Z,99.90
2023-05-15T04:26:39.743Z,99.90
2023-05-15T04:29:07.335Z,99.90
2023-05-15T04:31:35.026Z,99.90
2023-05-15T04:34:03.860Z,99.90
2023-05-15T04:36:31.707Z,99.90
2023-05-15T04:38:59.052Z,99.90
2023-05-15T04:41:26.988Z,99.90
2023-05-15T04:43:54.327Z,99.90
2023-05-15T04:46:21.656Z,99.90
2023-05-15T04:48:49.399Z,99.90
2023-05-15T04:51:16.618Z,99.90
2023-05-15T04:53:44.197Z,99.90
2023-05-15T04:56:12.076Z,99.90
2023-05-15T04:58:39.244Z,99.90
2023-05-15T05:01:06.437Z,99.90
2023-05-15T05:03:33.926Z,99.90
2023-05-15T05:06:01.361Z,99.90
2023-05-15T05:08:29.111Z,99.90
2023-05-15T05:10:57.457Z,99.90
2023-05-15T05:13:24.655Z,99.90
2023-05-15T05:15:51.890Z,99.90
2023-05-15T05:18:19.452Z,99.90
2023-05-15T05:20:47.215Z,99.90
2023-05-15T05:23:15.037Z,99.90
2023-05-15T05:25:42.255Z,99.90
2023-05-15T05:28:09.448Z,99.90
2023-05-15T05:30:36.941Z,99.90
2023-05-15T05:33:04.259Z,99.90
2023-05-15T05:35:31.554Z,99.90
2023-05-15T05:37:59.084Z,99.90
2023-05-15T05:40:26.423Z,99.90
2023-05-15T05:42:53.928Z,99.90
2023-05-15T05:45:21.189Z,99.90
2023-05-15T05:47:48.472Z,99.90
2023-05-15T05:50:15.838Z,99.90
2023-05-15T05:52:47.358Z,99.90
2023-05-15T05:55:14.652Z,99.90
2023-05-15T05:57:42.630Z,99.90
2023-05-15T06:00:11.262Z,99.90
2023-05-15T06:02:40.504Z,99.90
2023-05-15T06:05:08.467Z,99.90
2023-05-15T06:07:35.847Z,99.90
2023-05-15T06:10:04.432Z,99.90
2023-05-15T06:12:31.877Z,99.90
2023-05-15T06:14:59.068Z,99.90
2023-05-15T06:17:26.262Z,99.90
2023-05-15T06:19:54.123Z,99.90
2023-05-15T06:22:21.979Z,99.90
2023-05-15T06:24:49.213Z,99.90
2023-05-15T06:27:16.402Z,99.90
2023-05-15T06:29:43.579Z,99.90
2023-05-15T06:32:10.837Z,99.90
2023-05-15T06:34:38.061Z,99.90
2023-05-15T06:37:05.245Z,99.90
2023-05-15T06:39:32.907Z,99.90
2023-05-15T06:42:01.363Z,99.90
2023-05-15T06:44:31.204Z,99.90
2023-05-15T06:46:59.700Z,99.90
2023-05-15T06:49:27.723Z,99.90
2023-05-15T06:51:56.023Z,99.90
2023-05-15T06:54:23.243Z,99.90
2023-05-15T06:56:50.644Z,99.90
2023-05-15T06:59:18.178Z,99.10
2023-05-15T07:01:45.522Z,96.70
2023-05-15T07:04:15.760Z,92.90
2023-05-15T07:06:43.658Z,88.10
2023-05-15T07:09:10.826Z,82.80
2023-05-15T07:11:38.814Z,80.00
2023-05-15T07:14:07.320Z,77.30
2023-05-15T07:16:34.493Z,75.10
2023-05-15T07:19:01.843Z,72.50
2023-05-15T07:21:29.059Z,68.30
2023-05-15T07:23:56.938Z,65.70
2023-05-15T07:26:32.823Z,65.00
2023-05-15T07:29:04.126Z,63.40
2023-05-15T07:31:33.517Z,61.50
2023-05-15T07:34:01.003Z,59.50
2023-05-15T07:36:28.226Z,59.30
2023-05-15T07:38:55.517Z,57.40
2023-05-15T07:41:23.217Z,56.70
2023-05-15T07:43:50.392Z,53.90
2023-05-15T07:46:17.988Z,52.70
2023-05-15T07:48:45.257Z,53.30
2023-05-15T07:51:12.399Z,51.60
2023-05-15T07:53:39.650Z,50.70
2023-05-15T07:56:06.941Z,50.50
2023-05-15T07:58:38.164Z,49.80
2023-05-15T08:01:05.930Z,48.90
2023-05-15T08:03:33.898Z,48.40
2023-05-15T08:06:01.494Z,48.10
2023-05-15T08:08:28.690Z,46.00
2023-05-15T08:10:56.113Z,46.00
2023-05-15T08:13:23.285Z,44.40
2023-05-15T08:15:50.561Z,45.10
2023-05-15T08:18:17.777Z,43.80
2023-05-15T08:20:45.838Z,43.60
2023-05-15T08:37:58.885Z,43.40
2023-05-15T08:40:38.515Z,36.60
2023-05-15T08:43:16.224Z,37.10
2023-05-15T08:45:43.897Z,35.00
2023-05-15T08:55:40.809Z,35.70
2023-05-15T08:58:10.194Z,32.30
2023-05-15T09:00:37.883Z,32.50
2023-05-15T09:03:05.359Z,31.70
2023-05-15T09:05:33.340Z,31.60
2023-05-15T09:08:04.027Z,31.10
2023-05-15T09:10:32.739Z,31.00
2023-05-15T09:22:55.962Z,30.30
2023-05-15T09:25:39.619Z,28.00
2023-05-15T09:28:08.990Z,28.80
2023-05-15T09:48:06.987Z,28.00
2023-05-15T09:50:37.302Z,26.60
2023-05-15T09:53:05.290Z,27.20
2023-05-15T09:55:34.690Z,28.00
2023-05-15T10:10:39.198Z,27.60
2023-05-15T10:13:09.841Z,25.80
2023-05-15T10:15:38.704Z,26.40
2023-05-15T10:18:07.503Z,26.60
2023-05-15T10:20:35.935Z,26.00
2023-05-15T10:23:06.618Z,26.80
2023-05-15T10:25:57.880Z,26.30
2023-05-15T10:28:26.948Z,26.50
2023-05-15T10:30:55.815Z,26.10
2023-05-15T10:33:23.748Z,26.50
2023-05-15T10:35:52.613Z,26.80
2023-05-15T10:38:20.954Z,26.60
2023-05-15T10:40:48.552Z,26.70
2023-05-15T10:43:15.986Z,26.40
2023-05-15T10:45:43.962Z,26.30
2023-05-15T10:48:12.365Z,25.80
2023-05-15T10:50:40.879Z,25.70
2023-05-15T10:53:09.956Z,25.80
2023-05-15T10:55:38.366Z,25.30
2023-05-15T10:58:10.078Z,25.50
2023-05-15T11:00:45.080Z,24.80
2023-05-15T11:03:16.862Z,24.30
2023-05-15T11:06:06.850Z,24.30
2023-05-15T11:08:34.613Z,24.20
2023-05-15T11:11:01.963Z,24.10
2023-05-15T11:14:04.820Z,24.90
2023-05-15T11:17:00.547Z,24.20
2023-05-15T11:19:34.712Z,23.70
2023-05-15T11:22:15.733Z,24.40
2023-05-15T11:25:01.025Z,24.30
2023-05-15T11:55:44.116Z,23.30
2023-05-15T11:58:13.615Z,22.50
2023-05-15T12:00:42.701Z,23.10
2023-05-15T12:11:04.639Z,21.90
2023-05-15T12:16:03.299Z,22.40
2023-05-15T12:18:32.264Z,24.00
2023-05-15T12:23:28.929Z,24.20
2023-05-15T12:26:01.079Z,22.50
2023-05-15T12:28:30.116Z,22.60
2023-05-15T12:30:58.380Z,22.10
2023-05-15T12:33:28.940Z,21.90
2023-05-15T12:36:01.743Z,21.10
2023-05-15T12:38:30.449Z,22.20
2023-05-15T12:40:58.333Z,22.20
2023-05-15T12:43:26.157Z,22.60
2023-05-15T12:45:54.982Z,25.40
2023-05-15T12:48:22.349Z,26.50
2023-05-15T12:50:50.110Z,27.70
2023-05-15T12:53:17.865Z,26.30
2023-05-15T12:55:46.343Z,25.30
2023-05-15T13:00:46.670Z,25.10
2023-05-15T13:03:14.574Z,26.20
2023-05-15T13:05:46.103Z,27.60
2023-05-15T13:08:18.172Z,28.00
2023-05-15T13:10:46.658Z,27.20
2023-05-15T13:13:15.048Z,27.20
2023-05-15T13:25:40.492Z,28.20
2023-05-15T13:28:10.504Z,28.30
2023-05-15T13:40:56.558Z,28.90
2023-05-15T13:58:13.917Z,37.30
2023-05-15T14:15:32.687Z,43.80
2023-05-15T14:18:02.076Z,42.00
2023-05-15T14:20:29.514Z,42.60
2023-05-15T15:42:39.134Z,40.80
2023-05-15T15:45:06.779Z,57.00
2023-05-15T15:47:34.644Z,57.90
2023-05-15T15:54:57.273Z,59.40
2023-05-15T15:57:24.539Z,60.70
2023-05-15T15:59:52.235Z,62.20
2023-05-15T16:02:20.832Z,61.70
2023-05-15T16:04:48.056Z,60.40
2023-05-15T16:07:15.982Z,61.00
2023-05-15T16:09:43.132Z,61.80
2023-05-15T16:12:10.291Z,62.90
2023-05-15T16:14:39.101Z,62.90
2023-05-15T16:17:06.316Z,63.30
2023-05-15T16:19:59.596Z,63.30
2023-05-15T16:22:30.164Z,64.10
2023-05-15T16:24:58.174Z,64.90
2023-05-15T16:27:25.314Z,65.50
2023-05-15T16:29:52.981Z,66.20
2023-05-15T16:32:21.151Z,66.90
2023-05-15T16:34:48.515Z,67.40
2023-05-15T16:44:38.755Z,67.80
2023-05-15T16:47:05.996Z,69.90
2023-05-15T16:49:33.528Z,70.40
2023-05-15T16:52:00.786Z,71.00
2023-05-15T17:06:46.256Z,71.40
2023-05-15T17:09:13.708Z,76.60
2023-05-15T17:11:41.538Z,77.70
2023-05-15T17:14:09.055Z,78.90
2023-05-15T17:16:36.380Z,79.30
2023-05-15T17:19:04.319Z,80.40
2023-05-15T17:21:31.849Z,81.70
2023-05-15T17:23:59.468Z,83.30
2023-05-15T17:26:26.981Z,84.80
2023-05-15T17:28:54.256Z,86.80
2023-05-15T17:31:21.536Z,89.40
2023-05-15T17:33:49.233Z,90.50
2023-05-15T17:36:20.234Z,91.50
2023-05-15T17:38:47.589Z,92.30
2023-05-15T17:41:14.962Z,93.20
2023-05-15T17:43:42.340Z,94.40
2023-05-15T17:46:12.247Z,95.90
2023-05-15T17:48:40.566Z,97.40
2023-05-15T17:51:07.953Z,98.90
2023-05-15T17:53:35.431Z,99.90
2023-05-15T17:56:03.694Z,99.90
2023-05-15T17:58:31.202Z,99.90
2023-05-15T18:00:59.215Z,99.90
2023-05-15T18:03:27.085Z,99.90
2023-05-15T18:05:55.119Z,99.90
2023-05-15T18:08:22.499Z,99.90
2023-05-15T18:10:49.909Z,99.90
2023-05-15T18:13:18.718Z,99.90
2023-05-15T18:15:46.153Z,99.90
2023-05-15T18:18:14.454Z,99.90
2023-05-15T18:20:41.750Z,99.90
2023-05-15T18:23:09.185Z,99.90
2023-05-15T18:25:36.934Z,99.90
2023-05-15T18:28:04.593Z,99.90
2023-05-15T18:30:31.952Z,99.90
2023-05-15T18:32:59.309Z,99.90
2023-05-15T18:35:29.579Z,99.90
2023-05-15T18:37:56.902Z,99.90
2023-05-15T18:40:26.539Z,99.90
2023-05-15T18:42:55.287Z,99.90
2023-05-15T18:45:23.760Z,99.90
2023-05-15T18:47:55.067Z,99.90
2023-05-15T18:50:26.592Z,99.90
2023-05-15T18:52:54.657Z,99.90
2023-05-15T18:55:22.652Z,99.90
2023-05-15T18:57:50.524Z,99.90
2023-05-15T19:00:26.649Z,99.90
2023-05-15T19:03:05.127Z,99.90
2023-05-15T19:05:34.413Z,99.90
2023-05-15T19:08:02.314Z,99.90
2023-05-15T19:10:30.509Z,99.90
2023-05-15T19:12:58.508Z,99.90
2023-05-15T19:15:26.591Z,99.90
2023-05-15T19:17:54.885Z,99.90
2023-05-15T19:20:22.289Z,99.90
2023-05-15T19:22:49.790Z,99.90
2023-05-15T19:25:17.284Z,99.90
2023-05-15T19:27:44.703Z,99.90
2023-05-15T19:30:12.592Z,99.90
2023-05-15T19:32:40.104Z,99.90
2023-05-15T19:35:07.822Z,99.90
2023-05-15T19:37:36.219Z,99.90
2023-05-15T19:40:04.213Z,99.90
2023-05-15T19:42:31.532Z,99.90
2023-05-15T19:44:59.237Z,99.90
2023-05-15T19:47:30.697Z,99.90
2023-05-15T19:49:58.057Z,99.90
2023-05-15T19:52:25.588Z,99.90
2023-05-15T19:54:52.879Z,99.90
2023-05-15T19:57:20.183Z,99.90
2023-05-15T19:59:48.065Z,99.90
2023-05-15T20:02:15.810Z,99.90
2023-05-15T20:04:43.517Z,99.90
2023-05-15T20:07:10.933Z,99.90
2023-05-15T20:09:39.484Z,99.90
2023-05-15T20:12:07.446Z,99.90
2023-05-15T20:14:35.176Z,99.90
2023-05-15T20:17:03.587Z,99.90
2023-05-15T20:19:33.851Z,99.90
2023-05-15T20:22:02.196Z,99.90
2023-05-15T20:24:30.179Z,99.90
2023-05-15T20:26:57.626Z,99.90
2023-05-15T20:29:27.977Z,99.90
2023-05-15T20:31:55.414Z,99.90
2023-05-15T20:34:23.323Z,99.90
2023-05-15T20:36:52.728Z,99.90
2023-05-15T20:39:20.445Z,99.90
2023-05-15T20:41:47.874Z,99.90
2023-05-15T20:44:15.096Z,99.90
2023-05-15T20:46:45.180Z,99.90
2023-05-15T20:49:12.461Z,99.90
2023-05-15T20:51:41.573Z,99.90
2023-05-15T20:54:08.741Z,99.90
2023-05-15T20:56:36.059Z,99.90
2023-05-15T20:59:03.960Z,99.90
2023-05-15T21:01:31.307Z,99.90
2023-05-15T21:03:58.623Z,99.90
2023-05-15T21:06:25.927Z,99.90
2023-05-15T21:08:53.117Z,99.90
2023-05-15T21:11:20.273Z,99.90
2023-05-15T21:13:48.118Z,99.90
2023-05-15T21:16:15.375Z,99.90
2023-05-15T21:18:42.643Z,99.90
2023-05-15T21:21:10.083Z,99.90
2023-05-15T21:23:37.380Z,99.90
2023-05-15T21:26:04.624Z,99.90
2023-05-15T21:28:32.004Z,99.90
2023-05-15T21:31:06.450Z,99.90
2023-05-15T21:33:35.557Z,99.90
2023-05-15T21:36:06.138Z,99.90
2023-05-15T21:38:57.904Z,99.90
2023-05-15T21:41:26.233Z,99.90
2023-05-15T21:43:53.381Z,99.90
2023-05-15T21:46:20.564Z,99.90
2023-05-15T21:48:48.008Z,99.90
2023-05-15T21:51:15.643Z,99.90
2023-05-15T21:53:42.910Z,99.90
2023-05-15T21:56:10.791Z,99.90
2023-05-15T21:58:37.973Z,99.90
2023-05-15T22:01:05.324Z,99.90
2023-05-15T22:03:32.554Z,99.90
2023-05-15T22:05:59.796Z,99.90
2023-05-15T22:08:27.008Z,99.90
2023-05-15T22:10:54.292Z,99.90
2023-05-15T22:13:21.507Z,99.90
2023-05-15T22:15:48.663Z,99.90
2023-05-15T22:18:16.205Z,99.90
2023-05-15T22:20:47.788Z,99.90
2023-05-15T22:23:16.390Z,99.90
2023-05-15T22:25:43.684Z,99.90
2023-05-15T22:28:10.826Z,99.90
2023-05-15T22:30:38.613Z,99.90
2023-05-15T22:33:05.861Z,99.90
2023-05-15T22:35:33.047Z,99.90
2023-05-15T22:38:00.364Z,99.90
2023-05-15T22:40:27.946Z,99.90
2023-05-15T22:42:55.309Z,99.90
2023-05-15T22:45:23.275Z,99.90
2023-05-15T22:47:51.054Z,99.90
2023-05-15T22:50:18.449Z,99.90
2023-05-15T22:52:45.717Z,99.90
2023-05-15T22:55:13.646Z,99.90
2023-05-15T22:57:43.907Z,99.90
2023-05-15T23:00:11.969Z,99.90
2023-05-15T23:02:42.530Z,99.90
2023-05-15T23:05:10.816Z,99.90
2023-05-15T23:07:37.980Z,99.90
2023-05-15T23:10:05.693Z,99.90
2023-05-15T23:12:33.214Z,99.90
2023-05-15T23:15:00.362Z,99.90
2023-05-15T23:17:27.694Z,99.90
2023-05-15T23:19:54.909Z,99.90
2023-05-15T23:22:22.315Z,99.90
2023-05-15T23:24:49.985Z,99.90
2023-05-15T23:27:17.139Z,99.90
2023-05-15T23:29:44.403Z,99.90
2023-05-15T23:32:11.543Z,99.90
2023-05-15T23:34:38.806Z,99.90
2023-05-15T23:37:06.528Z,99.90
2023-05-15T23:39:33.760Z,99.90
2023-05-15T23:42:01.010Z,99.90
2023-05-15T23:44:28.987Z,99.90
2023-05-15T23:46:56.298Z,99.90
2023-05-15T23:49:24.131Z,99.90
2023-05-15T23:51:51.369Z,99.90
2023-05-15T23:54:18.621Z,99.90
2023-05-15T23:56:45.776Z,99.90
2023-05-15T23:59:14.489Z,99.90
